sensor_id;sensor_type;location;lat;lon;timestamp;pressure;altitude;pressure_sealevel;temperature;humidity
8705;BME280;4389;41.932;25.904;2023-12-20T00:00:15;-16086.66;;;0.70;100.00
8705;BME280;4389;41.932;25.904;2023-12-20T00:02:42;-16085.44;;;0.66;100.00
8705;BME280;4389;41.932;25.904;2023-12-20T00:05:12;-16084.13;;;0.61;100.00
8705;BME280;4389;41.932;25.904;2023-12-20T00:07:39;-16089.59;;;0.81;100.00
8705;BME280;4389;41.932;25.904;2023-12-20T00:10:07;-16090.13;;;0.83;100.00
8705;BME280;4389;41.932;25.904;2023-12-20T00:12:35;-16086.66;;;0.70;100.00
8705;BME280;4389;41.932;25.904;2023-12-20T00:15:02;-16089.59;;;0.81;100.00
8705;BME280;4389;41.932;25.904;2023-12-20T00:17:29;-16089.06;;;0.79;100.00
8705;BME280;4389;41.932;25.904;2023-12-20T00:19:55;-16087.19;;;0.72;100.00
8705;BME280;4389;41.932;25.904;2023-12-20T00:22:22;-16086.00;;;0.68;100.00
8705;BME280;4389;41.932;25.904;2023-12-20T00:24:49;-16086.53;;;0.70;100.00
8705;BME280;4389;41.932;25.904;2023-12-20T00:27:16;-16087.72;;;0.74;100.00
8705;BME280;4389;41.932;25.904;2023-12-20T00:29:44;-16086.91;;;0.71;100.00
8705;BME280;4389;41.932;25.904;2023-12-20T00:32:15;-16086.66;;;0.70;100.00
8705;BME280;4389;41.932;25.904;2023-12-20T00:34:43;-16085.19;;;0.65;100.00
8705;BME280;4389;41.932;25.904;2023-12-20T00:37:09;-16080.50;;;0.47;100.00
8705;BME280;4389;41.932;25.904;2023-12-20T00:39:36;-16082.50;;;0.55;100.00
8705;BME280;4389;41.932;25.904;2023-12-20T00:42:03;-16082.13;;;0.53;100.00
8705;BME280;4389;41.932;25.904;2023-12-20T00:44:30;-16078.38;;;0.39;100.00
8705;BME280;4389;41.932;25.904;2023-12-20T00:46:58;-16080.25;;;0.46;100.00
8705;BME280;4389;41.932;25.904;2023-12-20T00:49:26;-16080.50;;;0.47;100.00
8705;BME280;4389;41.932;25.904;2023-12-20T00:51:53;-16080.25;;;0.46;100.00
8705;BME280;4389;41.932;25.904;2023-12-20T00:54:20;-16080.50;;;0.47;100.00
8705;BME280;4389;41.932;25.904;2023-12-20T00:56:46;-16081.31;;;0.50;100.00
8705;BME280;4389;41.932;25.904;2023-12-20T00:59:13;-16079.44;;;0.43;100.00
8705;BME280;4389;41.932;25.904;2023-12-20T01:01:40;-16081.56;;;0.51;100.00
8705;BME280;4389;41.932;25.904;2023-12-20T01:04:08;-16081.19;;;0.50;100.00
8705;BME280;4389;41.932;25.904;2023-12-20T01:06:35;-16078.91;;;0.41;100.00
8705;BME280;4389;41.932;25.904;2023-12-20T01:09:02;-16080.25;;;0.46;100.00
8705;BME280;4389;41.932;25.904;2023-12-20T01:11:29;-16077.03;;;0.34;100.00
8705;BME280;4389;41.932;25.904;2023-12-20T01:13:56;-16079.72;;;0.44;100.00
8705;BME280;4389;41.932;25.904;2023-12-20T01:16:23;-16079.03;;;0.42;100.00
8705;BME280;4389;41.932;25.904;2023-12-20T01:18:49;-16072.09;;;0.16;100.00
8705;BME280;4389;41.932;25.904;2023-12-20T01:21:17;-16072.78;;;0.18;100.00
8705;BME280;4389;41.932;25.904;2023-12-20T01:23:44;-16071.03;;;0.12;100.00
8705;BME280;4389;41.932;25.904;2023-12-20T01:26:11;-16073.97;;;0.23;100.00
8705;BME280;4389;41.932;25.904;2023-12-20T01:28:38;-16074.22;;;0.24;100.00
8705;BME280;4389;41.932;25.904;2023-12-20T01:31:05;-16075.69;;;0.29;100.00
8705;BME280;4389;41.932;25.904;2023-12-20T01:33:32;-16077.84;;;0.37;100.00
8705;BME280;4389;41.932;25.904;2023-12-20T01:35:58;-16078.25;;;0.39;100.00
8705;BME280;4389;41.932;25.904;2023-12-20T01:38:26;-16080.25;;;0.46;100.00
8705;BME280;4389;41.932;25.904;2023-12-20T01:40:53;-16083.19;;;0.57;100.00
8705;BME280;4389;41.932;25.904;2023-12-20T01:43:20;-16081.03;;;0.49;100.00
8705;BME280;4389;41.932;25.904;2023-12-20T01:45:47;-16080.25;;;0.46;100.00
8705;BME280;4389;41.932;25.904;2023-12-20T01:48:14;-16078.38;;;0.39;100.00
8705;BME280;4389;41.932;25.904;2023-12-20T01:50:43;-16073.84;;;0.22;100.00
8705;BME280;4389;41.932;25.904;2023-12-20T01:53:12;-16072.22;;;0.16;100.00
8705;BME280;4389;41.932;25.904;2023-12-20T01:55:40;-16068.09;;;0.01;100.00
8705;BME280;4389;41.932;25.904;2023-12-20T01:58:08;-16068.22;;;0.01;100.00
8705;BME280;4389;41.932;25.904;2023-12-20T02:00:35;-16066.63;;;-0.05;100.00
8705;BME280;4389;41.932;25.904;2023-12-20T02:03:02;-16066.63;;;-0.05;100.00
8705;BME280;4389;41.932;25.904;2023-12-20T02:05:30;-16067.16;;;-0.03;100.00
8705;BME280;4389;41.932;25.904;2023-12-20T02:07:57;-16068.75;;;0.03;100.00
8705;BME280;4389;41.932;25.904;2023-12-20T02:10:23;-16070.50;;;0.10;100.00
8705;BME280;4389;41.932;25.904;2023-12-20T02:12:51;-16068.75;;;0.03;100.00
8705;BME280;4389;41.932;25.904;2023-12-20T02:15:18;-16069.81;;;0.07;100.00
8705;BME280;4389;41.932;25.904;2023-12-20T02:17:46;-16070.91;;;0.11;100.00
8705;BME280;4389;41.932;25.904;2023-12-20T02:20:13;-16074.09;;;0.23;100.00
8705;BME280;4389;41.932;25.904;2023-12-20T02:22:42;-16074.63;;;0.25;100.00
8705;BME280;4389;41.932;25.904;2023-12-20T02:25:09;-16070.09;;;0.08;100.00
8705;BME280;4389;41.932;25.904;2023-12-20T02:27:38;-16072.50;;;0.17;100.00
8705;BME280;4389;41.932;25.904;2023-12-20T02:30:06;-16071.84;;;0.15;100.00
8705;BME280;4389;41.932;25.904;2023-12-20T02:32:33;-16063.69;;;-0.15;100.00
8705;BME280;4389;41.932;25.904;2023-12-20T02:35:00;-16065.56;;;-0.08;100.00
8705;BME280;4389;41.932;25.904;2023-12-20T02:37:26;-16067.44;;;-0.02;100.00
8705;BME280;4389;41.932;25.904;2023-12-20T02:39:55;-16064.34;;;-0.13;100.00
8705;BME280;4389;41.932;25.904;2023-12-20T02:42:21;-16065.03;;;-0.10;100.00
8705;BME280;4389;41.932;25.904;2023-12-20T02:44:48;-16066.63;;;-0.05;100.00
8705;BME280;4389;41.932;25.904;2023-12-20T02:47:15;-16065.28;;;-0.09;100.00
8705;BME280;4389;41.932;25.904;2023-12-20T02:49:42;-16068.22;;;0.01;100.00
8705;BME280;4389;41.932;25.904;2023-12-20T02:52:09;-16068.75;;;0.03;100.00
8705;BME280;4389;41.932;25.904;2023-12-20T02:54:35;-16066.91;;;-0.03;100.00
8705;BME280;4389;41.932;25.904;2023-12-20T02:57:04;-16066.91;;;-0.03;100.00
8705;BME280;4389;41.932;25.904;2023-12-20T02:59:31;-16065.03;;;-0.10;100.00
8705;BME280;4389;41.932;25.904;2023-12-20T03:01:57;-16068.22;;;0.01;100.00
8705;BME280;4389;41.932;25.904;2023-12-20T03:04:24;-16066.91;;;-0.03;100.00
8705;BME280;4389;41.932;25.904;2023-12-20T03:06:51;-16066.22;;;-0.06;100.00
8705;BME280;4389;41.932;25.904;2023-12-20T03:09:18;-16067.44;;;-0.02;100.00
8705;BME280;4389;41.932;25.904;2023-12-20T03:11:44;-16067.56;;;-0.01;100.00
8705;BME280;4389;41.932;25.904;2023-12-20T03:14:13;-16063.81;;;-0.15;100.00
8705;BME280;4389;41.932;25.904;2023-12-20T03:16:39;-16059.69;;;-0.30;100.00
8705;BME280;4389;41.932;25.904;2023-12-20T03:19:06;-16060.47;;;-0.27;100.00
8705;BME280;4389;41.932;25.904;2023-12-20T03:21:33;-16061.69;;;-0.23;100.00
8705;BME280;4389;41.932;25.904;2023-12-20T03:24:00;-16061.94;;;-0.22;100.00
8705;BME280;4389;41.932;25.904;2023-12-20T03:26:26;-16062.47;;;-0.20;100.00
8705;BME280;4389;41.932;25.904;2023-12-20T03:28:53;-16063.56;;;-0.16;100.00
8705;BME280;4389;41.932;25.904;2023-12-20T03:31:21;-16063.41;;;-0.16;100.00
8705;BME280;4389;41.932;25.904;2023-12-20T03:33:48;-16064.75;;;-0.12;100.00
8705;BME280;4389;41.932;25.904;2023-12-20T03:36:16;-16062.63;;;-0.19;100.00
8705;BME280;4389;41.932;25.904;2023-12-20T03:38:43;-16062.63;;;-0.19;100.00
8705;BME280;4389;41.932;25.904;2023-12-20T03:41:11;-16061.00;;;-0.25;100.00
8705;BME280;4389;41.932;25.904;2023-12-20T03:43:38;-16061.28;;;-0.24;100.00
8705;BME280;4389;41.932;25.904;2023-12-20T03:46:04;-16055.94;;;-0.44;100.00
8705;BME280;4389;41.932;25.904;2023-12-20T03:48:33;-16058.34;;;-0.35;100.00
8705;BME280;4389;41.932;25.904;2023-12-20T03:51:00;-16059.41;;;-0.31;100.00
8705;BME280;4389;41.932;25.904;2023-12-20T03:53:26;-16052.59;;;-0.57;100.00
8705;BME280;4389;41.932;25.904;2023-12-20T03:55:53;-16051.41;;;-0.61;100.00
8705;BME280;4389;41.932;25.904;2023-12-20T03:58:20;-16054.06;;;-0.51;100.00
8705;BME280;4389;41.932;25.904;2023-12-20T04:00:47;-16054.59;;;-0.49;100.00
8705;BME280;4389;41.932;25.904;2023-12-20T04:03:13;-16053.81;;;-0.52;100.00
8705;BME280;4389;41.932;25.904;2023-12-20T04:05:41;-16051.94;;;-0.59;100.00
8705;BME280;4389;41.932;25.904;2023-12-20T04:08:09;-16047.13;;;-0.77;100.00
8705;BME280;4389;41.932;25.904;2023-12-20T04:10:36;-16045.13;;;-0.85;100.00
8705;BME280;4389;41.932;25.904;2023-12-20T04:13:03;-16048.72;;;-0.71;100.00
8705;BME280;4389;41.932;25.904;2023-12-20T04:15:30;-16048.47;;;-0.72;100.00
8705;BME280;4389;41.932;25.904;2023-12-20T04:17:57;-16050.06;;;-0.66;100.00
8705;BME280;4389;41.932;25.904;2023-12-20T04:20:24;-16052.47;;;-0.57;100.00
8705;BME280;4389;41.932;25.904;2023-12-20T04:22:52;-16054.34;;;-0.50;100.00
8705;BME280;4389;41.932;25.904;2023-12-20T04:25:19;-16055.94;;;-0.44;100.00
8705;BME280;4389;41.932;25.904;2023-12-20T04:27:46;-16055.94;;;-0.44;100.00
8705;BME280;4389;41.932;25.904;2023-12-20T04:30:13;-16057.53;;;-0.38;100.00
8705;BME280;4389;41.932;25.904;2023-12-20T04:32:40;-16059.28;;;-0.32;100.00
8705;BME280;4389;41.932;25.904;2023-12-20T04:35:07;-16062.34;;;-0.20;100.00
8705;BME280;4389;41.932;25.904;2023-12-20T04:37:34;-16059.69;;;-0.30;100.00
8705;BME280;4389;41.932;25.904;2023-12-20T04:40:03;-16059.41;;;-0.31;100.00
8705;BME280;4389;41.932;25.904;2023-12-20T04:42:30;-16056.47;;;-0.42;100.00
8705;BME280;4389;41.932;25.904;2023-12-20T04:44:57;-16057.41;;;-0.39;100.00
8705;BME280;4389;41.932;25.904;2023-12-20T04:47:24;-16053.25;;;-0.54;100.00
8705;BME280;4389;41.932;25.904;2023-12-20T04:49:51;-16051.41;;;-0.61;100.00
8705;BME280;4389;41.932;25.904;2023-12-20T04:52:19;-16053.53;;;-0.53;100.00
8705;BME280;4389;41.932;25.904;2023-12-20T04:54:45;-16053.53;;;-0.53;100.00
8705;BME280;4389;41.932;25.904;2023-12-20T04:57:13;-16054.88;;;-0.48;100.00
8705;BME280;4389;41.932;25.904;2023-12-20T04:59:40;-16055.53;;;-0.46;100.00
8705;BME280;4389;41.932;25.904;2023-12-20T05:02:07;-16054.06;;;-0.51;100.00
8705;BME280;4389;41.932;25.904;2023-12-20T05:04:34;-16054.88;;;-0.48;100.00
8705;BME280;4389;41.932;25.904;2023-12-20T05:07:01;-16053.81;;;-0.52;100.00
8705;BME280;4389;41.932;25.904;2023-12-20T05:09:30;-16054.06;;;-0.51;100.00
8705;BME280;4389;41.932;25.904;2023-12-20T05:11:57;-16053.25;;;-0.54;100.00
8705;BME280;4389;41.932;25.904;2023-12-20T05:14:25;-16054.19;;;-0.51;100.00
8705;BME280;4389;41.932;25.904;2023-12-20T05:16:52;-16053.81;;;-0.52;100.00
8705;BME280;4389;41.932;25.904;2023-12-20T05:19:19;-16056.47;;;-0.42;100.00
8705;BME280;4389;41.932;25.904;2023-12-20T05:21:46;-16054.34;;;-0.50;100.00
8705;BME280;4389;41.932;25.904;2023-12-20T05:24:13;-16053.25;;;-0.54;100.00
8705;BME280;4389;41.932;25.904;2023-12-20T05:26:40;-16047.38;;;-0.76;100.00
8705;BME280;4389;41.932;25.904;2023-12-20T05:29:07;-16045.25;;;-0.84;100.00
8705;BME280;4389;41.932;25.904;2023-12-20T05:31:35;-16037.22;;;-1.14;100.00
8705;BME280;4389;41.932;25.904;2023-12-20T05:34:02;-16034.69;;;-1.24;100.00
8705;BME280;4389;41.932;25.904;2023-12-20T05:36:29;-16037.22;;;-1.14;100.00
8705;BME280;4389;41.932;25.904;2023-12-20T05:38:55;-16036.97;;;-1.15;100.00
8705;BME280;4389;41.932;25.904;2023-12-20T05:41:22;-16033.75;;;-1.27;100.00
8705;BME280;4389;41.932;25.904;2023-12-20T05:43:49;-16036.44;;;-1.17;100.00
8705;BME280;4389;41.932;25.904;2023-12-20T05:46:16;-16032.41;;;-1.32;100.00
8705;BME280;4389;41.932;25.904;2023-12-20T05:48:44;-16032.69;;;-1.31;100.00
8705;BME280;4389;41.932;25.904;2023-12-20T05:51:11;-16035.75;;;-1.20;100.00
8705;BME280;4389;41.932;25.904;2023-12-20T05:53:39;-16036.03;;;-1.19;100.00
8705;BME280;4389;41.932;25.904;2023-12-20T05:56:06;-16035.91;;;-1.19;100.00
8705;BME280;4389;41.932;25.904;2023-12-20T05:58:33;-16036.56;;;-1.17;100.00
8705;BME280;4389;41.932;25.904;2023-12-20T06:01:00;-16035.09;;;-1.22;100.00
8705;BME280;4389;41.932;25.904;2023-12-20T06:03:26;-16035.38;;;-1.21;100.00
8705;BME280;4389;41.932;25.904;2023-12-20T06:05:54;-16034.56;;;-1.24;100.00
8705;BME280;4389;41.932;25.904;2023-12-20T06:08:22;-16038.56;;;-1.09;100.00
8705;BME280;4389;41.932;25.904;2023-12-20T06:10:48;-16044.72;;;-0.86;100.00
8705;BME280;4389;41.932;25.904;2023-12-20T06:13:15;-16047.66;;;-0.75;100.00
8705;BME280;4389;41.932;25.904;2023-12-20T06:15:42;-16050.59;;;-0.64;100.00
8705;BME280;4389;41.932;25.904;2023-12-20T06:18:09;-16050.31;;;-0.65;100.00
8705;BME280;4389;41.932;25.904;2023-12-20T06:20:36;-16050.84;;;-0.63;100.00
8705;BME280;4389;41.932;25.904;2023-12-20T06:23:04;-16053.53;;;-0.53;100.00
8705;BME280;4389;41.932;25.904;2023-12-20T06:25:30;-16054.19;;;-0.51;100.00
8705;BME280;4389;41.932;25.904;2023-12-20T06:27:57;-16057.53;;;-0.38;100.00
8705;BME280;4389;41.932;25.904;2023-12-20T06:30:24;-16056.22;;;-0.43;100.00
8705;BME280;4389;41.932;25.904;2023-12-20T06:32:53;-16056.47;;;-0.42;100.00
8705;BME280;4389;41.932;25.904;2023-12-20T06:35:23;-16061.81;;;-0.22;100.00
8705;BME280;4389;41.932;25.904;2023-12-20T06:37:49;-16060.22;;;-0.28;100.00
8705;BME280;4389;41.932;25.904;2023-12-20T06:40:18;-16061.69;;;-0.23;100.00
8705;BME280;4389;41.932;25.904;2023-12-20T06:42:45;-16067.69;;;-0.01;100.00
8705;BME280;4389;41.932;25.904;2023-12-20T06:45:12;-16067.97;;;0.00;100.00
8705;BME280;4389;41.932;25.904;2023-12-20T06:47:39;-16073.31;;;0.20;100.00
8705;BME280;4389;41.932;25.904;2023-12-20T06:50:06;-16076.09;;;0.31;100.00
8705;BME280;4389;41.932;25.904;2023-12-20T06:52:34;-16078.38;;;0.39;100.00
8705;BME280;4389;41.932;25.904;2023-12-20T06:55:01;-16079.72;;;0.44;100.00
8705;BME280;4389;41.932;25.904;2023-12-20T06:57:29;-16085.06;;;0.64;100.00
8705;BME280;4389;41.932;25.904;2023-12-20T06:59:56;-16082.78;;;0.56;100.00
8705;BME280;4389;41.932;25.904;2023-12-20T07:02:23;-16083.19;;;0.57;100.00
8705;BME280;4389;41.932;25.904;2023-12-20T07:04:50;-16087.72;;;0.74;100.00
8705;BME280;4389;41.932;25.904;2023-12-20T07:07:17;-16090.41;;;0.84;100.00
8705;BME280;4389;41.932;25.904;2023-12-20T07:09:43;-16091.59;;;0.89;100.00
8705;BME280;4389;41.932;25.904;2023-12-20T07:12:10;-16093.88;;;0.97;100.00
8705;BME280;4389;41.932;25.904;2023-12-20T07:14:39;-16094.53;;;1.00;100.00
8705;BME280;4389;41.932;25.904;2023-12-20T07:17:06;-16098.94;;;1.16;100.00
8705;BME280;4389;41.932;25.904;2023-12-20T07:19:37;-16099.75;;;1.19;100.00
8705;BME280;4389;41.932;25.904;2023-12-20T07:22:04;-16100.53;;;1.22;100.00
8705;BME280;4389;41.932;25.904;2023-12-20T07:24:31;-16101.75;;;1.27;100.00
8705;BME280;4389;41.932;25.904;2023-12-20T07:26:58;-16104.53;;;1.37;100.00
8705;BME280;4389;41.932;25.904;2023-12-20T07:29:25;-16103.88;;;1.35;100.00
8705;BME280;4389;41.932;25.904;2023-12-20T07:31:54;-16105.47;;;1.41;100.00
8705;BME280;4389;41.932;25.904;2023-12-20T07:34:20;-16106.69;;;1.45;100.00
8705;BME280;4389;41.932;25.904;2023-12-20T07:36:47;-16106.94;;;1.46;100.00
8705;BME280;4389;41.932;25.904;2023-12-20T07:39:14;-16108.28;;;1.51;100.00
8705;BME280;4389;41.932;25.904;2023-12-20T07:41:41;-16113.88;;;1.72;100.00
8705;BME280;4389;41.932;25.904;2023-12-20T07:44:08;-16116.44;;;1.82;100.00
8705;BME280;4389;41.932;25.904;2023-12-20T07:46:35;-16122.44;;;2.04;100.00
8705;BME280;4389;41.932;25.904;2023-12-20T07:49:05;-16121.09;;;1.99;100.00
8705;BME280;4389;41.932;25.904;2023-12-20T07:51:33;-16124.56;;;2.12;100.00
8705;BME280;4389;41.932;25.904;2023-12-20T07:54:00;-16131.78;;;2.39;100.00
8705;BME280;4389;41.932;25.904;2023-12-20T07:56:28;-16134.19;;;2.48;100.00
8705;BME280;4389;41.932;25.904;2023-12-20T07:58:55;-16139.25;;;2.67;100.00
8705;BME280;4389;41.932;25.904;2023-12-20T08:01:22;-16140.84;;;2.73;100.00
8705;BME280;4389;41.932;25.904;2023-12-20T08:03:50;-16145.38;;;2.90;100.00
8705;BME280;4389;41.932;25.904;2023-12-20T08:06:18;-16148.19;;;3.01;100.00
8705;BME280;4389;41.932;25.904;2023-12-20T08:08:45;-16153.66;;;3.21;100.00
8705;BME280;4389;41.932;25.904;2023-12-20T08:11:12;-16153.66;;;3.21;100.00
8705;BME280;4389;41.932;25.904;2023-12-20T08:13:39;-16156.19;;;3.31;100.00
8705;BME280;4389;41.932;25.904;2023-12-20T08:16:06;-16160.31;;;3.46;99.82
8705;BME280;4389;41.932;25.904;2023-12-20T08:18:32;-16163.53;;;3.58;99.56
8705;BME280;4389;41.932;25.904;2023-12-20T08:20:59;-16163.41;;;3.58;98.41
8705;BME280;4389;41.932;25.904;2023-12-20T08:23:28;-16160.84;;;3.48;98.72
8705;BME280;4389;41.932;25.904;2023-12-20T08:25:54;-16164.06;;;3.60;99.73
8705;BME280;4389;41.932;25.904;2023-12-20T08:28:21;-16166.31;;;3.69;99.50
8705;BME280;4389;41.932;25.904;2023-12-20T08:30:48;-16169.13;;;3.79;99.11
8705;BME280;4389;41.932;25.904;2023-12-20T08:33:19;-16173.41;;;3.95;99.86
8705;BME280;4389;41.932;25.904;2023-12-20T08:35:46;-16172.88;;;3.93;98.86
8705;BME280;4389;41.932;25.904;2023-12-20T08:38:12;-16174.47;;;3.99;99.92
8705;BME280;4389;41.932;25.904;2023-12-20T08:40:41;-16180.19;;;4.21;100.00
8705;BME280;4389;41.932;25.904;2023-12-20T08:43:08;-16181.94;;;4.27;100.00
8705;BME280;4389;41.932;25.904;2023-12-20T08:45:35;-16187.00;;;4.46;100.00
8705;BME280;4389;41.932;25.904;2023-12-20T08:48:02;-16189.13;;;4.54;100.00
8705;BME280;4389;41.932;25.904;2023-12-20T08:50:29;-16193.13;;;4.69;100.00
8705;BME280;4389;41.932;25.904;2023-12-20T08:52:56;-16193.66;;;4.71;100.00
8705;BME280;4389;41.932;25.904;2023-12-20T08:55:23;-16197.41;;;4.85;100.00
8705;BME280;4389;41.932;25.904;2023-12-20T08:57:51;-16201.13;;;4.99;100.00
8705;BME280;4389;41.932;25.904;2023-12-20T09:00:18;-16202.59;;;5.04;100.00
8705;BME280;4389;41.932;25.904;2023-12-20T09:02:46;-16206.31;;;5.18;99.21
8705;BME280;4389;41.932;25.904;2023-12-20T09:05:13;-16207.66;;;5.23;98.43
8705;BME280;4389;41.932;25.904;2023-12-20T09:07:40;-16209.66;;;5.31;98.25
8705;BME280;4389;41.932;25.904;2023-12-20T09:10:08;-16211.25;;;5.37;97.93
8705;BME280;4389;41.932;25.904;2023-12-20T09:12:35;-16213.13;;;5.44;99.12
8705;BME280;4389;41.932;25.904;2023-12-20T09:15:06;-16213.41;;;5.45;98.27
8705;BME280;4389;41.932;25.904;2023-12-20T09:17:33;-16215.53;;;5.53;99.77
8705;BME280;4389;41.932;25.904;2023-12-20T09:20:00;-16219.78;;;5.69;99.18
8705;BME280;4389;41.932;25.904;2023-12-20T09:22:27;-16219.94;;;5.69;98.40
8705;BME280;4389;41.932;25.904;2023-12-20T09:24:54;-16223.25;;;5.82;98.88
8705;BME280;4389;41.932;25.904;2023-12-20T09:27:21;-16227.78;;;5.99;99.22
8705;BME280;4389;41.932;25.904;2023-12-20T09:29:50;-16233.38;;;6.20;99.10
8705;BME280;4389;41.932;25.904;2023-12-20T09:32:20;-16235.00;;;6.26;99.22
8705;BME280;4389;41.932;25.904;2023-12-20T09:34:47;-16241.13;;;6.49;98.76
8705;BME280;4389;41.932;25.904;2023-12-20T09:37:14;-16246.97;;;6.71;98.00
8705;BME280;4389;41.932;25.904;2023-12-20T09:39:41;-16249.38;;;6.80;96.02
8705;BME280;4389;41.932;25.904;2023-12-20T09:42:08;-16255.25;;;7.02;95.21
8705;BME280;4389;41.932;25.904;2023-12-20T09:44:37;-16258.72;;;7.15;93.81
8705;BME280;4389;41.932;25.904;2023-12-20T09:47:08;-16259.25;;;7.17;93.06
8705;BME280;4389;41.932;25.904;2023-12-20T09:49:36;-16260.03;;;7.20;92.29
8705;BME280;4389;41.932;25.904;2023-12-20T09:52:05;-16261.91;;;7.27;91.63
8705;BME280;4389;41.932;25.904;2023-12-20T09:54:34;-16267.38;;;7.47;91.66
8705;BME280;4389;41.932;25.904;2023-12-20T09:57:01;-16277.63;;;7.86;90.77
8705;BME280;4389;41.932;25.904;2023-12-20T09:59:28;-16282.53;;;8.04;89.13
8705;BME280;4389;41.932;25.904;2023-12-20T10:01:55;-16292.25;;;8.41;88.78
8705;BME280;4389;41.932;25.904;2023-12-20T10:04:24;-16295.19;;;8.52;85.78
8705;BME280;4389;41.932;25.904;2023-12-20T10:06:52;-16301.59;;;8.76;86.97
8705;BME280;4389;41.932;25.904;2023-12-20T10:09:19;-16305.84;;;8.92;84.43
8705;BME280;4389;41.932;25.904;2023-12-20T10:11:46;-16311.97;;;9.14;84.75
8705;BME280;4389;41.932;25.904;2023-12-20T10:14:13;-16319.56;;;9.43;84.14
8705;BME280;4389;41.932;25.904;2023-12-20T10:16:40;-16323.53;;;9.58;84.61
8705;BME280;4389;41.932;25.904;2023-12-20T10:19:07;-16323.94;;;9.59;85.28
8705;BME280;4389;41.932;25.904;2023-12-20T10:21:36;-16328.19;;;9.75;84.48
8705;BME280;4389;41.932;25.904;2023-12-20T10:24:05;-16330.19;;;9.83;84.30
8705;BME280;4389;41.932;25.904;2023-12-20T10:26:32;-16335.13;;;10.01;83.21
8705;BME280;4389;41.932;25.904;2023-12-20T10:29:01;-16336.19;;;10.05;82.35
8705;BME280;4389;41.932;25.904;2023-12-20T10:31:31;-16332.72;;;9.92;83.60
8705;BME280;4389;41.932;25.904;2023-12-20T10:34:00;-16332.84;;;9.93;84.35
8705;BME280;4389;41.932;25.904;2023-12-20T10:36:28;-16326.59;;;9.69;84.53
8705;BME280;4389;41.932;25.904;2023-12-20T10:38:57;-16325.81;;;9.66;86.11
8705;BME280;4389;41.932;25.904;2023-12-20T10:41:28;-16324.22;;;9.60;86.19
8705;BME280;4389;41.932;25.904;2023-12-20T10:43:57;-16322.75;;;9.55;85.98
8705;BME280;4389;41.932;25.904;2023-12-20T10:46:25;-16322.09;;;9.52;86.52
8705;BME280;4389;41.932;25.904;2023-12-20T10:48:54;-16319.03;;;9.41;87.75
8705;BME280;4389;41.932;25.904;2023-12-20T10:51:22;-16318.63;;;9.39;87.96
8705;BME280;4389;41.932;25.904;2023-12-20T10:53:53;-16318.22;;;9.38;87.91
8705;BME280;4389;41.932;25.904;2023-12-20T10:56:20;-16316.75;;;9.32;88.32
8705;BME280;4389;41.932;25.904;2023-12-20T10:58:50;-16317.81;;;9.36;89.18
8705;BME280;4389;41.932;25.904;2023-12-20T11:01:18;-16321.56;;;9.50;89.57
8705;BME280;4389;41.932;25.904;2023-12-20T11:03:48;-16321.81;;;9.51;89.10
8705;BME280;4389;41.932;25.904;2023-12-20T11:06:26;-16323.69;;;9.58;90.03
8705;BME280;4389;41.932;25.904;2023-12-20T11:09:01;-16322.59;;;9.54;89.76
8705;BME280;4389;41.932;25.904;2023-12-20T11:11:39;-16324.47;;;9.61;90.32
8705;BME280;4389;41.932;25.904;2023-12-20T11:14:16;-16323.94;;;9.59;88.90
8705;BME280;4389;41.932;25.904;2023-12-20T11:16:45;-16321.94;;;9.52;89.07
8705;BME280;4389;41.932;25.904;2023-12-20T11:19:12;-16320.22;;;9.45;89.51
8705;BME280;4389;41.932;25.904;2023-12-20T11:21:40;-16320.47;;;9.46;89.91
8705;BME280;4389;41.932;25.904;2023-12-20T11:24:07;-16319.94;;;9.44;90.91
8705;BME280;4389;41.932;25.904;2023-12-20T11:26:34;-16320.09;;;9.45;90.34
8705;BME280;4389;41.932;25.904;2023-12-20T11:29:31;-16319.16;;;9.41;89.91
8705;BME280;4389;41.932;25.904;2023-12-20T11:32:03;-16319.81;;;9.44;90.34
8705;BME280;4389;41.932;25.904;2023-12-20T11:34:33;-16319.69;;;9.43;89.65
8705;BME280;4389;41.932;25.904;2023-12-20T11:37:02;-16319.94;;;9.44;89.78
8705;BME280;4389;41.932;25.904;2023-12-20T11:39:30;-16320.47;;;9.46;89.73
8705;BME280;4389;41.932;25.904;2023-12-20T11:42:04;-16321.03;;;9.48;90.76
8705;BME280;4389;41.932;25.904;2023-12-20T11:44:42;-16318.88;;;9.40;89.18
8705;BME280;4389;41.932;25.904;2023-12-20T11:47:11;-16315.56;;;9.28;89.45
8705;BME280;4389;41.932;25.904;2023-12-20T11:49:41;-16313.69;;;9.21;90.32
8705;BME280;4389;41.932;25.904;2023-12-20T11:52:08;-16310.91;;;9.10;90.79
8705;BME280;4389;41.932;25.904;2023-12-20T11:54:35;-16311.69;;;9.13;91.81
8705;BME280;4389;41.932;25.904;2023-12-20T11:57:02;-16309.03;;;9.03;91.96
8705;BME280;4389;41.932;25.904;2023-12-20T11:59:29;-16312.22;;;9.15;92.64
8705;BME280;4389;41.932;25.904;2023-12-20T12:01:59;-16312.75;;;9.17;91.71
8705;BME280;4389;41.932;25.904;2023-12-20T12:04:29;-16313.69;;;9.21;91.80
8705;BME280;4389;41.932;25.904;2023-12-20T12:06:57;-16313.03;;;9.18;92.62
8705;BME280;4389;41.932;25.904;2023-12-20T12:09:25;-16318.88;;;9.40;94.00
8705;BME280;4389;41.932;25.904;2023-12-20T12:11:52;-16323.94;;;9.59;93.66
8705;BME280;4389;41.932;25.904;2023-12-20T12:14:20;-16328.19;;;9.75;92.14
8705;BME280;4389;41.932;25.904;2023-12-20T12:16:47;-16332.72;;;9.92;91.34
8705;BME280;4389;41.932;25.904;2023-12-20T12:19:26;-16335.25;;;10.02;91.02
8705;BME280;4389;41.932;25.904;2023-12-20T12:22:04;-16338.72;;;10.15;90.69
8705;BME280;4389;41.932;25.904;2023-12-20T12:24:32;-16339.50;;;10.18;90.61
8705;BME280;4389;41.932;25.904;2023-12-20T12:27:00;-16343.25;;;10.32;89.47
8705;BME280;4389;41.932;25.904;2023-12-20T12:29:28;-16341.78;;;10.26;89.75
8705;BME280;4389;41.932;25.904;2023-12-20T12:31:56;-16343.25;;;10.32;89.97
8705;BME280;4389;41.932;25.904;2023-12-20T12:34:23;-16345.78;;;10.41;90.57
8705;BME280;4389;41.932;25.904;2023-12-20T12:36:53;-16343.91;;;10.34;90.91
8705;BME280;4389;41.932;25.904;2023-12-20T12:39:23;-16340.84;;;10.23;90.95
8705;BME280;4389;41.932;25.904;2023-12-20T12:41:50;-16337.25;;;10.09;92.12
8705;BME280;4389;41.932;25.904;2023-12-20T12:44:17;-16335.13;;;10.01;91.83
8705;BME280;4389;41.932;25.904;2023-12-20T12:46:45;-16336.19;;;10.05;92.18
8705;BME280;4389;41.932;25.904;2023-12-20T12:49:12;-16338.31;;;10.13;91.55
8705;BME280;4389;41.932;25.904;2023-12-20T12:51:39;-16338.59;;;10.14;91.25
8705;BME280;4389;41.932;25.904;2023-12-20T12:54:06;-16338.84;;;10.15;91.30
8705;BME280;4389;41.932;25.904;2023-12-20T12:56:34;-16342.31;;;10.28;90.97
8705;BME280;4389;41.932;25.904;2023-12-20T12:59:01;-16343.38;;;10.32;91.24
8705;BME280;4389;41.932;25.904;2023-12-20T13:01:28;-16343.91;;;10.34;90.34